Ekwok, AK

3:34 AM AKDT on July 14, 2014 (GMT -0800)
King Salmon (PAKN) Elev 46 ft | 58.68 °N, 156.66 °W | Change Station

Current weather conditions updated 40 minutes ago

Mostly Cloudy
Mostly Cloudy
51 °F
Feels Like 51 °F
N
4
Wind Variable Wind from NNE

Today is forecast to be nearly the same temperature as yesterday.

Today
High -- | Low -- °F
--% Chance of Precip.
Yesterday
High -- | Low -- °F
Precip. -- in
5:38 AM 11:32 PM
Waning Gibbous, 94% visible
Pressure 30.25 in
Visibility 10.0 miles
Clouds Mostly Cloudy 3800 ft
Mostly Cloudy 11000 ft
Dew Point 49 °F
Humidity 92%
Rainfall 0.00 in
Snow Depth Not available.
UV 0 out of 12
Pollen Not available.
Air Quality Not available.
Flu Activity Sporadic
METAR PAKN 141054Z 03003KT 10SM BKN038 BKN110 11/09 A3025 RMK AO2 RAB19E46 SLP244 P0000 T01060094 $

More Conditions Fewer Conditions

Pressure 30.25 in
Visibility 10.0 miles
Clouds Mostly Cloudy 3800 ft
Mostly Cloudy 11000 ft
Dew Point 49 °F
Humidity 92%
Rainfall 0.00 in
Snow Depth Not available.
UV 0 out of 12
Pollen Not available.
Air Quality Not available.
Flu Activity Sporadic
METAR PAKN 141054Z 03003KT 10SM BKN038 BKN110 11/09 A3025 RMK AO2 RAB19E46 SLP244 P0000 T01060094 $

More Conditions Fewer Conditions

10-Day Weather Forecast

Almanac

Astronomy

Jul. 14, 2014 Rise Set
Actual Time 5:38 AM AKDT 11:32 PM AKDT
Civil Twilight 4:24 AM AKDT 12:45 AM AKDT
Nautical Twilight Sun does not rise Sun does not rise
Astronomical Twilight Sun does not rise Sun does not rise
Moon No Moon Rise 9:34 AM AKDT
Length of Visible Light 20h 21m
Length of Day
17h 54m
Tomorrow will be 3m 28s shorter.
Waning Gibbous, 94% of the Moon is Illuminated
Today
Waning Gibbous
Jul 18
Last Quarter
Jul 26
New
Aug 3
First Quarter
Aug 10
Full

Today's Extremes

State Highs State Lows

Community

WunderPhotos

Upload Photos

1,733,611 photos uploaded!

Nearby

Snow Depth

Station Depth Elevation
Port Graham 0 in 300 ft
Mcneil Canyon 1 in 1320 ft
MF Bradley River 24 in 2300 ft
Nuka Glacier 0 in 1250 ft
Cooper Lake 18 in 1200 ft

Earthquake Activity

City Distance Mag. Time & Date
No recent earthquake activity has been reported nearby.
Minimum magnitude displayed is 2.5.

Coastal Water Temperatures

Place Temperature
No Stations Reporting

Nearby Weather Stations

There are no personal weather stations in this area.